NDY weather

Sanday Airport
Sanday, Scotland, United Kingdom

Public forecast

Using degrees Celsius for public forecast. Weather courtesy of forecast.io.

METAR (pilot weather report)

Closest report is Kirkwall Airport, 20.3 nm (37.5 km) SSW. Retrieved 2019/05/22 18:20 UTC (0 seconds ago):

EGPA 221820Z 32014KT 6000 RADZ BKN005 OVC011 08/08 Q1010

TAF (pilot weather forecast)

Forecast is more than 12 hours old.

Closest forecast is Scatsta Airport, 80.8 nm (149.7 km) NNE. Retrieved 2013/04/29 03:39 UTC (6 years ago):

TAF TAF EGPM 290337Z 2903/2915 22005KT 9999 SCT030 PROB30 TEMPO 2903/2906 7000 SHRAGS BECMG 2906/2909 32015KT PROB40 TEMPO 2906/2915 6000 SHRA SHGS BKN012CB